sensor_id;sensor_type;location;lat;lon;timestamp;temperature;humidity
4201;DHT22;2114;50.398;8.814;2023-04-25T00:04:03;11.10;99.90
4201;DHT22;2114;50.398;8.814;2023-04-25T00:09:06;11.10;99.90
4201;DHT22;2114;50.398;8.814;2023-04-25T00:14:11;11.10;99.90
4201;DHT22;2114;50.398;8.814;2023-04-25T00:19:11;11.00;99.90
4201;DHT22;2114;50.398;8.814;2023-04-25T00:24:13;11.00;99.90
4201;DHT22;2114;50.398;8.814;2023-04-25T00:29:14;10.90;99.90
4201;DHT22;2114;50.398;8.814;2023-04-25T00:34:15;10.90;99.90
4201;DHT22;2114;50.398;8.814;2023-04-25T00:39:15;10.80;99.90
4201;DHT22;2114;50.398;8.814;2023-04-25T00:44:16;10.80;99.90
4201;DHT22;2114;50.398;8.814;2023-04-25T00:49:17;10.80;99.90
4201;DHT22;2114;50.398;8.814;2023-04-25T00:54:17;10.70;99.90
4201;DHT22;2114;50.398;8.814;2023-04-25T00:59:19;10.70;99.90
4201;DHT22;2114;50.398;8.814;2023-04-25T01:04:20;10.70;99.90
4201;DHT22;2114;50.398;8.814;2023-04-25T01:09:22;10.60;99.90
4201;DHT22;2114;50.398;8.814;2023-04-25T01:14:23;10.60;99.90
4201;DHT22;2114;50.398;8.814;2023-04-25T01:19:24;10.50;99.90
4201;DHT22;2114;50.398;8.814;2023-04-25T01:24:25;10.40;99.90
4201;DHT22;2114;50.398;8.814;2023-04-25T01:29:27;10.40;99.90
4201;DHT22;2114;50.398;8.814;2023-04-25T01:34:27;10.30;99.90
4201;DHT22;2114;50.398;8.814;2023-04-25T01:39:28;10.20;99.90
4201;DHT22;2114;50.398;8.814;2023-04-25T01:44:29;10.20;99.90
4201;DHT22;2114;50.398;8.814;2023-04-25T01:49:29;10.20;99.90
4201;DHT22;2114;50.398;8.814;2023-04-25T01:54:30;10.20;99.90
4201;DHT22;2114;50.398;8.814;2023-04-25T01:59:30;10.10;99.90
4201;DHT22;2114;50.398;8.814;2023-04-25T02:04:31;10.10;99.90
4201;DHT22;2114;50.398;8.814;2023-04-25T02:09:32;10.10;99.90
4201;DHT22;2114;50.398;8.814;2023-04-25T02:14:32;10.10;99.90
4201;DHT22;2114;50.398;8.814;2023-04-25T02:19:33;10.10;99.90
4201;DHT22;2114;50.398;8.814;2023-04-25T02:24:33;10.10;99.90
4201;DHT22;2114;50.398;8.814;2023-04-25T02:29:35;10.10;99.90
4201;DHT22;2114;50.398;8.814;2023-04-25T02:34:35;10.10;99.90
4201;DHT22;2114;50.398;8.814;2023-04-25T02:39:36;10.10;99.90
4201;DHT22;2114;50.398;8.814;2023-04-25T02:44:36;10.10;99.90
4201;DHT22;2114;50.398;8.814;2023-04-25T02:49:37;10.10;99.90
4201;DHT22;2114;50.398;8.814;2023-04-25T02:54:38;10.10;99.90
4201;DHT22;2114;50.398;8.814;2023-04-25T02:59:39;10.00;99.90
4201;DHT22;2114;50.398;8.814;2023-04-25T03:04:39;9.90;99.90
4201;DHT22;2114;50.398;8.814;2023-04-25T03:09:40;9.80;99.90
4201;DHT22;2114;50.398;8.814;2023-04-25T03:14:41;9.80;99.90
4201;DHT22;2114;50.398;8.814;2023-04-25T03:19:41;9.70;99.90
4201;DHT22;2114;50.398;8.814;2023-04-25T03:24:42;9.60;99.90
4201;DHT22;2114;50.398;8.814;2023-04-25T03:29:43;9.60;99.90
4201;DHT22;2114;50.398;8.814;2023-04-25T03:34:43;9.50;99.90
4201;DHT22;2114;50.398;8.814;2023-04-25T03:39:44;9.30;99.90
4201;DHT22;2114;50.398;8.814;2023-04-25T03:44:45;9.10;99.90
4201;DHT22;2114;50.398;8.814;2023-04-25T03:49:45;8.90;99.90
4201;DHT22;2114;50.398;8.814;2023-04-25T03:54:46;8.80;99.90
4201;DHT22;2114;50.398;8.814;2023-04-25T03:59:46;8.50;99.90
4201;DHT22;2114;50.398;8.814;2023-04-25T04:04:47;8.30;99.90
4201;DHT22;2114;50.398;8.814;2023-04-25T04:09:48;8.20;99.90
4201;DHT22;2114;50.398;8.814;2023-04-25T04:14:48;8.10;99.90
4201;DHT22;2114;50.398;8.814;2023-04-25T04:19:49;8.10;99.90
4201;DHT22;2114;50.398;8.814;2023-04-25T04:24:50;8.00;99.90
4201;DHT22;2114;50.398;8.814;2023-04-25T04:29:50;8.00;99.90
4201;DHT22;2114;50.398;8.814;2023-04-25T04:34:53;8.00;99.90
4201;DHT22;2114;50.398;8.814;2023-04-25T04:39:55;8.00;99.90
4201;DHT22;2114;50.398;8.814;2023-04-25T04:44:56;8.00;99.90
4201;DHT22;2114;50.398;8.814;2023-04-25T04:49:58;8.00;99.90
4201;DHT22;2114;50.398;8.814;2023-04-25T04:54:59;8.00;99.90
4201;DHT22;2114;50.398;8.814;2023-04-25T05:00:00;8.10;99.90
4201;DHT22;2114;50.398;8.814;2023-04-25T05:05:01;8.20;99.90
4201;DHT22;2114;50.398;8.814;2023-04-25T05:10:02;8.30;99.90
4201;DHT22;2114;50.398;8.814;2023-04-25T05:15:03;8.30;99.90
4201;DHT22;2114;50.398;8.814;2023-04-25T05:20:06;8.40;99.90
4201;DHT22;2114;50.398;8.814;2023-04-25T05:25:08;8.50;99.90
4201;DHT22;2114;50.398;8.814;2023-04-25T05:30:09;8.50;99.90
4201;DHT22;2114;50.398;8.814;2023-04-25T05:35:10;8.50;99.90
4201;DHT22;2114;50.398;8.814;2023-04-25T05:40:11;8.50;99.90
4201;DHT22;2114;50.398;8.814;2023-04-25T05:45:12;8.60;99.90
4201;DHT22;2114;50.398;8.814;2023-04-25T05:50:13;8.90;99.90
4201;DHT22;2114;50.398;8.814;2023-04-25T05:55:13;9.30;99.90
4201;DHT22;2114;50.398;8.814;2023-04-25T06:00:14;9.70;99.90
4201;DHT22;2114;50.398;8.814;2023-04-25T06:05:16;9.90;99.90
4201;DHT22;2114;50.398;8.814;2023-04-25T06:10:16;10.00;99.90
4201;DHT22;2114;50.398;8.814;2023-04-25T06:15:17;10.10;99.90
4201;DHT22;2114;50.398;8.814;2023-04-25T06:20:18;10.10;99.90
4201;DHT22;2114;50.398;8.814;2023-04-25T06:25:20;10.20;99.90
4201;DHT22;2114;50.398;8.814;2023-04-25T06:30:21;10.10;99.90
4201;DHT22;2114;50.398;8.814;2023-04-25T06:35:25;10.10;99.90
4201;DHT22;2114;50.398;8.814;2023-04-25T06:40:26;9.90;99.90
4201;DHT22;2114;50.398;8.814;2023-04-25T06:45:27;9.90;99.90
4201;DHT22;2114;50.398;8.814;2023-04-25T06:50:27;9.90;99.90
4201;DHT22;2114;50.398;8.814;2023-04-25T06:55:28;10.00;99.90
4201;DHT22;2114;50.398;8.814;2023-04-25T07:00:29;10.00;99.90
4201;DHT22;2114;50.398;8.814;2023-04-25T07:05:30;10.10;99.90
4201;DHT22;2114;50.398;8.814;2023-04-25T07:10:31;10.30;99.90
4201;DHT22;2114;50.398;8.814;2023-04-25T07:15:31;10.40;99.90
4201;DHT22;2114;50.398;8.814;2023-04-25T07:20:32;10.50;99.90
4201;DHT22;2114;50.398;8.814;2023-04-25T07:25:33;10.70;99.90
4201;DHT22;2114;50.398;8.814;2023-04-25T07:30:33;10.80;99.90
4201;DHT22;2114;50.398;8.814;2023-04-25T07:35:35;11.10;99.90
4201;DHT22;2114;50.398;8.814;2023-04-25T07:40:35;11.40;99.90
4201;DHT22;2114;50.398;8.814;2023-04-25T07:45:36;11.50;99.90
4201;DHT22;2114;50.398;8.814;2023-04-25T07:50:37;11.60;99.90
4201;DHT22;2114;50.398;8.814;2023-04-25T07:55:37;11.80;99.90
4201;DHT22;2114;50.398;8.814;2023-04-25T08:00:40;12.20;99.90
4201;DHT22;2114;50.398;8.814;2023-04-25T08:05:41;12.40;99.90
4201;DHT22;2114;50.398;8.814;2023-04-25T08:10:42;12.50;99.90
4201;DHT22;2114;50.398;8.814;2023-04-25T08:15:43;12.60;99.90
4201;DHT22;2114;50.398;8.814;2023-04-25T08:20:43;12.90;99.90
4201;DHT22;2114;50.398;8.814;2023-04-25T08:25:44;13.20;99.90
4201;DHT22;2114;50.398;8.814;2023-04-25T08:30:44;13.30;99.90
4201;DHT22;2114;50.398;8.814;2023-04-25T08:35:45;13.10;99.90
4201;DHT22;2114;50.398;8.814;2023-04-25T08:40:49;13.00;99.90
4201;DHT22;2114;50.398;8.814;2023-04-25T08:45:53;13.10;99.90
4201;DHT22;2114;50.398;8.814;2023-04-25T08:50:56;13.20;99.90
4201;DHT22;2114;50.398;8.814;2023-04-25T08:56:00;13.30;99.90
4201;DHT22;2114;50.398;8.814;2023-04-25T09:01:02;13.60;99.90
4201;DHT22;2114;50.398;8.814;2023-04-25T09:06:04;14.10;99.90
4201;DHT22;2114;50.398;8.814;2023-04-25T09:11:05;14.50;99.90
4201;DHT22;2114;50.398;8.814;2023-04-25T09:16:05;14.80;99.90
4201;DHT22;2114;50.398;8.814;2023-04-25T09:21:12;15.20;99.90
4201;DHT22;2114;50.398;8.814;2023-04-25T09:26:19;15.70;99.90
4201;DHT22;2114;50.398;8.814;2023-04-25T09:31:23;15.90;99.90
4201;DHT22;2114;50.398;8.814;2023-04-25T09:36:27;15.80;99.90
4201;DHT22;2114;50.398;8.814;2023-04-25T09:41:28;15.60;99.90
4201;DHT22;2114;50.398;8.814;2023-04-25T09:46:34;15.20;99.90
4201;DHT22;2114;50.398;8.814;2023-04-25T09:51:36;14.90;99.90
4201;DHT22;2114;50.398;8.814;2023-04-25T09:56:38;14.30;99.90
4201;DHT22;2114;50.398;8.814;2023-04-25T10:01:40;14.20;99.90
4201;DHT22;2114;50.398;8.814;2023-04-25T10:06:42;14.30;99.90
4201;DHT22;2114;50.398;8.814;2023-04-25T10:11:45;14.60;99.90
4201;DHT22;2114;50.398;8.814;2023-04-25T10:16:47;15.10;99.90
4201;DHT22;2114;50.398;8.814;2023-04-25T10:21:55;15.40;99.90
4201;DHT22;2114;50.398;8.814;2023-04-25T10:26:58;15.70;99.90
4201;DHT22;2114;50.398;8.814;2023-04-25T10:31:58;15.70;99.90
4201;DHT22;2114;50.398;8.814;2023-04-25T10:36:59;15.90;99.90
4201;DHT22;2114;50.398;8.814;2023-04-25T10:42:03;16.20;99.90
4201;DHT22;2114;50.398;8.814;2023-04-25T10:47:06;16.40;99.90
4201;DHT22;2114;50.398;8.814;2023-04-25T10:57:44;16.50;99.90
4201;DHT22;2114;50.398;8.814;2023-04-25T11:02:51;16.50;99.90
4201;DHT22;2114;50.398;8.814;2023-04-25T11:07:54;16.10;99.90
4201;DHT22;2114;50.398;8.814;2023-04-25T11:12:58;15.70;99.90
4201;DHT22;2114;50.398;8.814;2023-04-25T11:17:59;15.80;99.90
4201;DHT22;2114;50.398;8.814;2023-04-25T11:23:00;16.00;99.90
4201;DHT22;2114;50.398;8.814;2023-04-25T11:28:00;16.40;99.90
4201;DHT22;2114;50.398;8.814;2023-04-25T11:33:01;17.10;99.90
4201;DHT22;2114;50.398;8.814;2023-04-25T11:38:04;17.20;99.90
4201;DHT22;2114;50.398;8.814;2023-04-25T11:43:04;16.90;99.90
4201;DHT22;2114;50.398;8.814;2023-04-25T11:48:05;16.90;99.90
4201;DHT22;2114;50.398;8.814;2023-04-25T11:53:06;16.90;99.90
4201;DHT22;2114;50.398;8.814;2023-04-25T11:58:08;17.00;99.90
4201;DHT22;2114;50.398;8.814;2023-04-25T12:03:09;16.90;99.90
4201;DHT22;2114;50.398;8.814;2023-04-25T12:08:13;16.80;99.90
4201;DHT22;2114;50.398;8.814;2023-04-25T12:13:22;16.60;99.90
4201;DHT22;2114;50.398;8.814;2023-04-25T12:18:24;16.40;99.90
4201;DHT22;2114;50.398;8.814;2023-04-25T12:23:28;16.30;99.90
4201;DHT22;2114;50.398;8.814;2023-04-25T12:28:31;16.30;99.90
4201;DHT22;2114;50.398;8.814;2023-04-25T12:33:35;16.50;99.90
4201;DHT22;2114;50.398;8.814;2023-04-25T12:38:39;17.10;99.90
4201;DHT22;2114;50.398;8.814;2023-04-25T12:43:40;17.80;99.90
4201;DHT22;2114;50.398;8.814;2023-04-25T12:48:42;18.20;99.90
4201;DHT22;2114;50.398;8.814;2023-04-25T12:53:42;18.50;99.90
4201;DHT22;2114;50.398;8.814;2023-04-25T12:58:43;18.60;99.90
4201;DHT22;2114;50.398;8.814;2023-04-25T13:03:44;18.70;99.90
4201;DHT22;2114;50.398;8.814;2023-04-25T13:08:45;18.60;99.90
4201;DHT22;2114;50.398;8.814;2023-04-25T13:13:45;18.30;99.30
4201;DHT22;2114;50.398;8.814;2023-04-25T13:18:46;18.10;98.00
4201;DHT22;2114;50.398;8.814;2023-04-25T13:23:47;17.70;97.70
4201;DHT22;2114;50.398;8.814;2023-04-25T13:28:47;17.30;98.30
4201;DHT22;2114;50.398;8.814;2023-04-25T13:33:48;17.40;99.90
4201;DHT22;2114;50.398;8.814;2023-04-25T13:38:48;17.80;99.90
4201;DHT22;2114;50.398;8.814;2023-04-25T13:43:49;18.70;99.70
4201;DHT22;2114;50.398;8.814;2023-04-25T13:48:50;18.90;97.60
4201;DHT22;2114;50.398;8.814;2023-04-25T13:53:50;18.70;96.40
4201;DHT22;2114;50.398;8.814;2023-04-25T13:58:51;18.60;96.60
4201;DHT22;2114;50.398;8.814;2023-04-25T14:03:55;18.40;96.50
4201;DHT22;2114;50.398;8.814;2023-04-25T14:08:56;18.30;95.00
4201;DHT22;2114;50.398;8.814;2023-04-25T14:13:56;17.90;94.80
4201;DHT22;2114;50.398;8.814;2023-04-25T14:19:00;17.70;94.80
4201;DHT22;2114;50.398;8.814;2023-04-25T14:24:01;17.40;94.10
4201;DHT22;2114;50.398;8.814;2023-04-25T14:29:06;16.80;94.00
4201;DHT22;2114;50.398;8.814;2023-04-25T14:34:07;16.70;94.20
4201;DHT22;2114;50.398;8.814;2023-04-25T14:39:08;16.50;94.20
4201;DHT22;2114;50.398;8.814;2023-04-25T14:44:09;16.20;94.40
4201;DHT22;2114;50.398;8.814;2023-04-25T14:49:09;16.10;94.40
4201;DHT22;2114;50.398;8.814;2023-04-25T14:54:10;16.10;94.50
4201;DHT22;2114;50.398;8.814;2023-04-25T14:59:12;16.20;94.20
4201;DHT22;2114;50.398;8.814;2023-04-25T15:09:14;16.20;93.60
4201;DHT22;2114;50.398;8.814;2023-04-25T15:14:19;16.20;94.40
4201;DHT22;2114;50.398;8.814;2023-04-25T15:19:20;16.20;95.20
4201;DHT22;2114;50.398;8.814;2023-04-25T15:24:20;16.20;95.40
4201;DHT22;2114;50.398;8.814;2023-04-25T15:29:21;16.20;95.40
4201;DHT22;2114;50.398;8.814;2023-04-25T15:34:22;16.20;95.80
4201;DHT22;2114;50.398;8.814;2023-04-25T15:39:23;16.30;96.20
4201;DHT22;2114;50.398;8.814;2023-04-25T15:44:24;16.50;96.40
4201;DHT22;2114;50.398;8.814;2023-04-25T15:49:25;16.60;96.10
4201;DHT22;2114;50.398;8.814;2023-04-25T15:54:25;16.60;96.20
4201;DHT22;2114;50.398;8.814;2023-04-25T15:59:26;16.40;95.80
4201;DHT22;2114;50.398;8.814;2023-04-25T16:04:26;16.40;96.20
4201;DHT22;2114;50.398;8.814;2023-04-25T16:09:35;16.10;94.90
4201;DHT22;2114;50.398;8.814;2023-04-25T16:14:36;16.00;94.80
4201;DHT22;2114;50.398;8.814;2023-04-25T16:19:36;15.50;93.60
4201;DHT22;2114;50.398;8.814;2023-04-25T16:24:38;15.20;93.10
4201;DHT22;2114;50.398;8.814;2023-04-25T16:29:40;15.10;93.20
4201;DHT22;2114;50.398;8.814;2023-04-25T16:34:41;15.00;93.50
4201;DHT22;2114;50.398;8.814;2023-04-25T16:39:42;15.00;93.80
4201;DHT22;2114;50.398;8.814;2023-04-25T16:44:42;15.00;94.00
4201;DHT22;2114;50.398;8.814;2023-04-25T16:49:43;15.10;94.40
4201;DHT22;2114;50.398;8.814;2023-04-25T16:54:44;15.30;94.60
4201;DHT22;2114;50.398;8.814;2023-04-25T16:59:45;15.60;94.50
4201;DHT22;2114;50.398;8.814;2023-04-25T17:04:46;15.70;94.70
4201;DHT22;2114;50.398;8.814;2023-04-25T17:09:46;15.70;94.50
4201;DHT22;2114;50.398;8.814;2023-04-25T17:14:48;15.70;94.10
4201;DHT22;2114;50.398;8.814;2023-04-25T17:19:49;15.50;94.10
4201;DHT22;2114;50.398;8.814;2023-04-25T17:24:49;15.20;94.00
4201;DHT22;2114;50.398;8.814;2023-04-25T17:29:50;14.90;93.50
4201;DHT22;2114;50.398;8.814;2023-04-25T17:34:51;14.60;93.60
4201;DHT22;2114;50.398;8.814;2023-04-25T17:39:51;14.40;93.80
4201;DHT22;2114;50.398;8.814;2023-04-25T17:44:52;14.20;93.90
4201;DHT22;2114;50.398;8.814;2023-04-25T17:49:54;14.00;94.20
4201;DHT22;2114;50.398;8.814;2023-04-25T17:59:56;13.30;95.90
4201;DHT22;2114;50.398;8.814;2023-04-25T18:04:57;13.10;93.60
4201;DHT22;2114;50.398;8.814;2023-04-25T18:09:57;12.80;93.50
4201;DHT22;2114;50.398;8.814;2023-04-25T18:14:58;12.50;93.50
4201;DHT22;2114;50.398;8.814;2023-04-25T18:19:59;12.30;93.70
4201;DHT22;2114;50.398;8.814;2023-04-25T18:25:01;12.10;94.00
4201;DHT22;2114;50.398;8.814;2023-04-25T18:30:05;11.90;94.10
4201;DHT22;2114;50.398;8.814;2023-04-25T18:35:09;11.70;94.20
4201;DHT22;2114;50.398;8.814;2023-04-25T18:40:10;11.60;94.70
4201;DHT22;2114;50.398;8.814;2023-04-25T18:45:16;11.40;95.10
4201;DHT22;2114;50.398;8.814;2023-04-25T18:50:17;11.30;95.30
4201;DHT22;2114;50.398;8.814;2023-04-25T18:55:22;11.20;95.60
4201;DHT22;2114;50.398;8.814;2023-04-25T19:00:23;11.10;95.90
4201;DHT22;2114;50.398;8.814;2023-04-25T19:05:24;10.90;96.30
4201;DHT22;2114;50.398;8.814;2023-04-25T19:10:25;10.80;96.50
4201;DHT22;2114;50.398;8.814;2023-04-25T19:15:26;10.80;97.00
4201;DHT22;2114;50.398;8.814;2023-04-25T19:20:27;10.70;97.40
4201;DHT22;2114;50.398;8.814;2023-04-25T19:25:28;10.60;97.70
4201;DHT22;2114;50.398;8.814;2023-04-25T19:30:28;10.40;97.80
4201;DHT22;2114;50.398;8.814;2023-04-25T19:35:30;10.40;98.10
4201;DHT22;2114;50.398;8.814;2023-04-25T19:40:32;10.30;98.40
4201;DHT22;2114;50.398;8.814;2023-04-25T19:45:33;10.10;98.60
4201;DHT22;2114;50.398;8.814;2023-04-25T19:50:33;10.00;98.70
4201;DHT22;2114;50.398;8.814;2023-04-25T19:55:34;9.80;99.20
4201;DHT22;2114;50.398;8.814;2023-04-25T20:00:35;9.70;99.70
4201;DHT22;2114;50.398;8.814;2023-04-25T20:05:35;9.70;99.70
4201;DHT22;2114;50.398;8.814;2023-04-25T20:10:36;9.50;99.90
4201;DHT22;2114;50.398;8.814;2023-04-25T20:15:37;9.40;99.90
4201;DHT22;2114;50.398;8.814;2023-04-25T20:20:37;9.40;99.90
4201;DHT22;2114;50.398;8.814;2023-04-25T20:25:38;9.30;99.90
4201;DHT22;2114;50.398;8.814;2023-04-25T20:30:38;9.30;99.90
4201;DHT22;2114;50.398;8.814;2023-04-25T20:35:39;9.20;99.90
4201;DHT22;2114;50.398;8.814;2023-04-25T20:40:39;9.10;99.90
4201;DHT22;2114;50.398;8.814;2023-04-25T20:45:40;9.10;99.90
4201;DHT22;2114;50.398;8.814;2023-04-25T20:50:41;9.00;99.90
4201;DHT22;2114;50.398;8.814;2023-04-25T20:55:41;8.80;99.90
4201;DHT22;2114;50.398;8.814;2023-04-25T21:00:42;8.80;99.90
4201;DHT22;2114;50.398;8.814;2023-04-25T21:05:43;8.70;99.90
4201;DHT22;2114;50.398;8.814;2023-04-25T21:10:43;8.60;99.90
4201;DHT22;2114;50.398;8.814;2023-04-25T21:15:44;8.60;99.90
4201;DHT22;2114;50.398;8.814;2023-04-25T21:20:45;8.50;99.90
4201;DHT22;2114;50.398;8.814;2023-04-25T21:25:45;8.50;99.90
4201;DHT22;2114;50.398;8.814;2023-04-25T21:30:48;8.40;99.90
4201;DHT22;2114;50.398;8.814;2023-04-25T21:35:48;8.30;99.90
4201;DHT22;2114;50.398;8.814;2023-04-25T21:40:49;8.20;99.90
4201;DHT22;2114;50.398;8.814;2023-04-25T21:45:51;8.10;99.90
4201;DHT22;2114;50.398;8.814;2023-04-25T21:50:51;8.00;99.90
4201;DHT22;2114;50.398;8.814;2023-04-25T21:55:52;7.90;99.90
4201;DHT22;2114;50.398;8.814;2023-04-25T22:00:53;7.80;99.90
4201;DHT22;2114;50.398;8.814;2023-04-25T22:05:53;7.70;99.90
4201;DHT22;2114;50.398;8.814;2023-04-25T22:10:54;7.70;99.90
4201;DHT22;2114;50.398;8.814;2023-04-25T22:15:55;7.60;99.90
4201;DHT22;2114;50.398;8.814;2023-04-25T22:20:55;7.60;99.90
4201;DHT22;2114;50.398;8.814;2023-04-25T22:25:56;7.50;99.90
4201;DHT22;2114;50.398;8.814;2023-04-25T22:30:57;7.40;99.90
4201;DHT22;2114;50.398;8.814;2023-04-25T22:35:57;7.30;99.90
4201;DHT22;2114;50.398;8.814;2023-04-25T22:40:58;7.30;99.90
4201;DHT22;2114;50.398;8.814;2023-04-25T22:45:59;7.20;99.90
4201;DHT22;2114;50.398;8.814;2023-04-25T22:51:03;7.20;99.90
4201;DHT22;2114;50.398;8.814;2023-04-25T22:56:08;7.10;99.90
4201;DHT22;2114;50.398;8.814;2023-04-25T23:01:09;7.00;99.90
4201;DHT22;2114;50.398;8.814;2023-04-25T23:06:10;7.00;99.90
4201;DHT22;2114;50.398;8.814;2023-04-25T23:11:12;7.00;99.90
4201;DHT22;2114;50.398;8.814;2023-04-25T23:16:13;6.90;99.90
4201;DHT22;2114;50.398;8.814;2023-04-25T23:21:14;6.80;99.90
4201;DHT22;2114;50.398;8.814;2023-04-25T23:26:15;6.70;99.90
4201;DHT22;2114;50.398;8.814;2023-04-25T23:31:16;6.70;99.90
4201;DHT22;2114;50.398;8.814;2023-04-25T23:36:17;6.70;99.90
4201;DHT22;2114;50.398;8.814;2023-04-25T23:41:21;6.70;99.90
4201;DHT22;2114;50.398;8.814;2023-04-25T23:46:22;6.60;99.90
4201;DHT22;2114;50.398;8.814;2023-04-25T23:51:22;6.50;99.90
4201;DHT22;2114;50.398;8.814;2023-04-25T23:56:24;6.50;99.90
